createdAt,value
2022-09-21T00:00:37.136Z,10.07
2022-09-21T00:05:38.526Z,10.16
2022-09-21T00:10:40.769Z,10.08
2022-09-21T00:15:42.181Z,10.03
2022-09-21T00:20:43.674Z,9.98
2022-09-21T00:25:45.114Z,10.05
2022-09-21T00:30:51.640Z,9.94
2022-09-21T00:35:53.043Z,9.94
2022-09-21T00:40:54.484Z,9.91
2022-09-21T00:46:05.195Z,9.88
2022-09-21T00:51:08.529Z,9.92
2022-09-21T00:56:12.224Z,9.78
2022-09-21T01:01:18.606Z,9.71
2022-09-21T01:06:21.425Z,9.69
2022-09-21T01:11:56.919Z,9.75
2022-09-21T01:17:09.142Z,9.73
2022-09-21T01:23:04.890Z,9.74
2022-09-21T01:28:18.509Z,9.77
2022-09-21T01:33:27.468Z,9.74
2022-09-21T01:38:35.699Z,9.71
2022-09-21T01:43:42.259Z,9.65
2022-09-21T01:48:48.190Z,9.66
2022-09-21T01:53:56.229Z,9.57
2022-09-21T01:59:06.378Z,9.53
2022-09-21T02:04:13.081Z,9.39
2022-09-21T02:09:14.576Z,9.49
2022-09-21T02:14:20.335Z,9.48
2022-09-21T02:19:42.042Z,9.55
2022-09-21T02:24:48.001Z,9.42
2022-09-21T02:30:13.001Z,9.50
2022-09-21T02:35:28.358Z,9.52
2022-09-21T02:40:48.043Z,9.56
2022-09-21T02:45:59.610Z,9.48
2022-09-21T02:51:10.062Z,9.52
2022-09-21T02:56:13.192Z,9.48
2022-09-21T03:01:16.279Z,9.30
2022-09-21T03:06:17.728Z,9.28
2022-09-21T03:11:20.561Z,9.33
2022-09-21T03:16:22.836Z,9.44
2022-09-21T03:21:24.347Z,9.44
2022-09-21T03:26:25.855Z,9.55
2022-09-21T03:31:27.295Z,9.60
2022-09-21T03:36:28.690Z,9.54
2022-09-21T03:41:30.134Z,9.56
2022-09-21T03:46:35.219Z,9.53
2022-09-21T03:51:36.675Z,9.77
2022-09-21T03:56:38.319Z,9.66
2022-09-21T04:01:39.809Z,9.49
2022-09-21T04:06:41.268Z,9.59
2022-09-21T04:11:44.801Z,9.57
2022-09-21T04:16:46.391Z,9.66
2022-09-21T04:21:48.270Z,9.79
2022-09-21T04:26:49.823Z,9.78
2022-09-21T04:31:51.246Z,9.74
2022-09-21T04:36:54.727Z,9.88
2022-09-21T04:41:56.856Z,9.69
2022-09-21T04:46:58.600Z,9.85
2022-09-21T04:52:00.158Z,9.95
2022-09-21T04:57:01.606Z,9.85
2022-09-21T05:02:03.027Z,9.71
2022-09-21T05:07:04.498Z,9.80
2022-09-21T05:12:06.282Z,9.87
2022-09-21T05:17:07.740Z,9.81
2022-09-21T05:22:09.365Z,9.96
2022-09-21T05:27:10.801Z,9.85
2022-09-21T05:32:24.666Z,9.96
2022-09-21T05:38:01.330Z,10.03
2022-09-21T05:43:03.101Z,9.96
2022-09-21T05:48:13.712Z,9.83
2022-09-21T05:53:30.991Z,10.04
2022-09-21T05:58:57.171Z,10.15
2022-09-21T06:03:59.906Z,10.25
2022-09-21T06:09:01.365Z,10.16
2022-09-21T06:14:03.051Z,10.18
2022-09-21T06:19:04.534Z,10.25
2022-09-21T06:24:06.018Z,10.24
2022-09-21T06:29:07.649Z,10.30
2022-09-21T06:34:09.080Z,10.08
2022-09-21T06:39:10.485Z,10.23
2022-09-21T06:44:11.888Z,10.31
2022-09-21T06:49:13.323Z,10.44
2022-09-21T06:54:14.751Z,10.41
2022-09-21T06:59:16.152Z,10.71
2022-09-21T07:04:20.858Z,10.57
2022-09-21T07:14:46.297Z,10.70
2022-09-21T07:19:47.914Z,10.80
2022-09-21T07:24:49.428Z,11.17
2022-09-21T07:29:51.202Z,11.00
2022-09-21T07:34:56.387Z,11.05
2022-09-21T07:39:57.942Z,11.17
2022-09-21T07:45:03.841Z,11.20
2022-09-21T07:50:06.319Z,11.73
2022-09-21T07:55:08.420Z,11.83
2022-09-21T08:00:10.456Z,12.03
2022-09-21T08:05:11.933Z,12.07
2022-09-21T08:10:13.357Z,12.05
2022-09-21T08:15:37.056Z,11.91
2022-09-21T08:20:36.195Z,11.78
2022-09-21T08:25:37.680Z,11.86
2022-09-21T08:30:39.125Z,11.82
2022-09-21T08:35:40.552Z,11.75
2022-09-21T08:40:42.138Z,12.02
2022-09-21T08:45:46.012Z,11.83
2022-09-21T08:50:54.050Z,12.16
2022-09-21T08:55:57.268Z,12.36
2022-09-21T09:01:08.053Z,12.43
2022-09-21T09:06:36.304Z,12.36
2022-09-21T09:11:52.685Z,12.58
2022-09-21T09:17:07.294Z,12.71
2022-09-21T09:22:14.850Z,12.82
2022-09-21T09:27:32.562Z,13.17
2022-09-21T09:32:41.173Z,13.62
2022-09-21T09:37:44.807Z,13.90
2022-09-21T09:43:07.018Z,13.92
2022-09-21T09:48:54.484Z,13.82
2022-09-21T09:54:00.582Z,13.94
2022-09-21T09:59:08.261Z,14.07
2022-09-21T10:04:15.150Z,13.80
2022-09-21T10:09:27.499Z,13.97
2022-09-21T10:14:34.289Z,14.45
2022-09-21T10:19:37.830Z,14.86
2022-09-21T10:24:40.834Z,15.00
2022-09-21T10:29:46.145Z,15.35
2022-09-21T10:35:10.265Z,15.61
2022-09-21T10:40:17.465Z,15.49
2022-09-21T10:45:23.092Z,15.32
2022-09-21T10:50:37.014Z,15.40
2022-09-21T10:56:14.236Z,15.76
2022-09-21T11:01:23.713Z,15.88
2022-09-21T11:06:30.540Z,15.85
2022-09-21T11:11:50.207Z,15.69
2022-09-21T11:16:58.087Z,15.50
2022-09-21T11:22:02.556Z,15.60
2022-09-21T11:27:12.896Z,15.59
2022-09-21T11:32:34.012Z,15.69
2022-09-21T11:38:05.761Z,16.06
2022-09-21T11:43:27.473Z,15.93
2022-09-21T11:49:06.369Z,16.08
2022-09-21T11:54:15.162Z,16.06
2022-09-21T12:00:01.313Z,16.02
2022-09-21T12:05:13.005Z,15.62
2022-09-21T12:10:37.400Z,15.60
2022-09-21T12:16:11.635Z,15.75
2022-09-21T12:21:21.982Z,16.05
2022-09-21T12:26:29.732Z,15.83
2022-09-21T12:32:03.536Z,16.09
2022-09-21T12:37:15.163Z,15.96
2022-09-21T12:42:33.572Z,16.12
2022-09-21T12:47:56.804Z,16.18
2022-09-21T12:52:59.094Z,16.22
2022-09-21T12:58:16.307Z,16.13
2022-09-21T13:03:52.538Z,16.15
2022-09-21T13:08:54.408Z,15.97
2022-09-21T13:14:02.587Z,16.06
2022-09-21T13:19:13.033Z,16.10
2022-09-21T13:24:30.347Z,16.25
2022-09-21T13:29:34.961Z,16.14
2022-09-21T13:34:41.369Z,15.82
2022-09-21T13:39:57.930Z,15.83
2022-09-21T13:45:24.122Z,15.70
2022-09-21T13:50:37.113Z,16.23
2022-09-21T13:55:50.619Z,16.41
2022-09-21T14:01:09.945Z,16.17
2022-09-21T14:06:27.216Z,15.95
2022-09-21T14:11:29.098Z,15.82
2022-09-21T14:16:39.954Z,15.82
2022-09-21T14:22:04.184Z,15.74
2022-09-21T14:27:18.998Z,16.00
2022-09-21T14:32:24.897Z,16.13
2022-09-21T14:37:28.083Z,16.18
2022-09-21T14:42:31.845Z,15.96
2022-09-21T14:47:56.323Z,15.95
2022-09-21T14:53:29.053Z,15.87
2022-09-21T14:58:52.283Z,16.12
2022-09-21T15:04:21.864Z,16.13
2022-09-21T15:09:48.087Z,16.11
2022-09-21T15:15:20.173Z,15.80
2022-09-21T15:20:25.901Z,15.56
2022-09-21T15:25:32.197Z,15.59
2022-09-21T15:30:44.015Z,15.57
2022-09-21T15:35:47.218Z,15.31
2022-09-21T15:40:50.837Z,15.06
2022-09-21T15:45:59.213Z,14.93
2022-09-21T15:51:24.659Z,15.03
2022-09-21T15:56:28.724Z,14.90
2022-09-21T16:01:31.576Z,14.92
2022-09-21T16:06:38.815Z,14.69
2022-09-21T16:11:41.303Z,14.56
2022-09-21T16:17:13.570Z,14.47
2022-09-21T16:22:19.069Z,14.61
2022-09-21T16:27:23.988Z,14.29
2022-09-21T16:32:32.983Z,14.34
2022-09-21T16:37:37.454Z,14.19
2022-09-21T16:42:39.694Z,14.25
2022-09-21T16:47:41.102Z,13.93
2022-09-21T16:52:48.449Z,13.83
2022-09-21T16:57:49.993Z,13.79
2022-09-21T17:02:51.440Z,13.63
2022-09-21T17:07:58.375Z,13.67
2022-09-21T17:12:59.894Z,13.70
2022-09-21T17:18:02.170Z,13.94
2022-09-21T17:23:04.255Z,13.75
2022-09-21T17:28:23.353Z,13.80
2022-09-21T17:33:25.346Z,13.74
2022-09-21T17:38:26.768Z,13.77
2022-09-21T17:43:32.080Z,13.86
2022-09-21T17:48:34.421Z,13.75
2022-09-21T17:53:40.339Z,13.67
2022-09-21T17:58:48.770Z,13.58
2022-09-21T18:03:50.947Z,13.62
2022-09-21T18:08:53.822Z,13.62
2022-09-21T18:14:07.442Z,13.65
2022-09-21T18:19:32.119Z,13.59
2022-09-21T18:24:33.739Z,13.54
2022-09-21T18:29:40.052Z,13.50
2022-09-21T18:35:05.651Z,13.36
2022-09-21T18:40:21.888Z,13.36
2022-09-21T18:45:36.146Z,13.24
2022-09-21T18:50:56.452Z,13.23
2022-09-21T18:55:58.123Z,13.33
2022-09-21T19:01:00.321Z,13.25
2022-09-21T19:06:14.886Z,13.36
2022-09-21T19:11:34.758Z,13.17
2022-09-21T19:16:54.759Z,13.09
2022-09-21T19:22:13.824Z,13.04
2022-09-21T19:27:43.168Z,12.96
2022-09-21T19:32:50.988Z,12.98
2022-09-21T19:37:57.572Z,12.98
2022-09-21T19:43:14.238Z,13.03
2022-09-21T19:48:16.711Z,13.01
2022-09-21T19:53:41.308Z,12.93
2022-09-21T19:59:01.740Z,12.86
2022-09-21T20:04:06.301Z,12.85
2022-09-21T20:09:17.131Z,12.88
2022-09-21T20:14:42.528Z,12.93
2022-09-21T20:19:53.047Z,12.88
2022-09-21T20:25:23.770Z,12.84
2022-09-21T20:30:28.420Z,12.88
2022-09-21T20:35:30.789Z,12.56
2022-09-21T20:40:32.825Z,12.61
2022-09-21T20:45:35.494Z,12.73
2022-09-21T20:50:37.398Z,12.73
2022-09-21T20:55:39.881Z,12.71
2022-09-21T21:00:41.302Z,12.77
2022-09-21T21:05:42.755Z,12.87
2022-09-21T21:10:46.528Z,12.74
2022-09-21T21:15:52.787Z,12.78
2022-09-21T21:20:54.215Z,12.88
2022-09-21T21:25:55.608Z,12.86
2022-09-21T21:30:57.013Z,13.01
2022-09-21T21:36:04.274Z,12.91
2022-09-21T21:41:05.720Z,12.88
2022-09-21T21:46:08.917Z,12.80
2022-09-21T21:51:10.360Z,12.60
2022-09-21T21:56:15.025Z,12.60
2022-09-21T22:01:22.306Z,12.49
2022-09-21T22:06:25.084Z,12.29
2022-09-21T22:11:29.021Z,12.33
2022-09-21T22:16:32.198Z,12.36
2022-09-21T22:21:41.825Z,12.33
2022-09-21T22:26:45.059Z,12.31
2022-09-21T22:31:48.829Z,12.19
2022-09-21T22:36:50.675Z,12.20
2022-09-21T22:41:52.083Z,12.11
2022-09-21T22:46:53.495Z,12.06
2022-09-21T22:51:54.947Z,12.02
2022-09-21T22:56:56.439Z,12.02
2022-09-21T23:01:57.840Z,12.06
2022-09-21T23:06:59.253Z,12.01
2022-09-21T23:12:00.949Z,12.03
2022-09-21T23:17:02.353Z,12.10
2022-09-21T23:22:03.760Z,11.96
2022-09-21T23:27:05.232Z,12.03
2022-09-21T23:32:06.680Z,12.03
2022-09-21T23:37:08.136Z,12.00
2022-09-21T23:42:09.707Z,11.91
2022-09-21T23:47:11.106Z,11.78
2022-09-21T23:52:12.503Z,11.69
2022-09-21T23:57:13.950Z,11.75
